Time;durP1;ratioP1;P1;durP2;ratioP2;P2;SDS_P1;SDS_P2;PMS_P1;PMS_P2;Temp;Humidity;BMP_temperature;BMP_pressure;BME280_temperature;BME280_humidity;BME280_pressure;Samples;Min_cycle;Max_cycle;Signal;HPM_P1;HPM_P2
2021/06/23 00:01:11;;;;;;;7.65;4.28;;;;;;;;;;1900371;67;20072;-75
2021/06/23 00:03:37;;;;;;;5.20;4.00;;;;;;;;;;1901954;67;20093;-77
2021/06/23 00:06:02;;;;;;;6.85;4.13;;;;;;;;;;1903443;67;20510;-74
2021/06/23 00:08:28;;;;;;;6.65;3.80;;;;;;;;;;1901251;67;20450;-76
2021/06/23 00:10:53;;;;;;;5.28;3.63;;;;;;;;;;1902619;67;20676;-76
2021/06/23 00:13:20;;;;;;;7.35;3.75;;;;;;;;;;1902600;67;20083;-77
2021/06/23 00:15:46;;;;;;;3.88;2.70;;;;;;;;;;1904165;67;20092;-77
2021/06/23 00:18:12;;;;;;;5.55;2.65;;;;;;;;;;1903669;67;20162;-77
2021/06/23 00:20:37;;;;;;;5.65;2.50;;;;;;;;;;1903765;75;20089;-76
2021/06/23 00:23:04;;;;;;;4.80;2.63;;;;;;;;;;1903476;67;20087;-75
2021/06/23 00:25:30;;;;;;;3.45;2.33;;;;;;;;;;1902823;67;20089;-76
2021/06/23 00:27:55;;;;;;;6.88;2.88;;;;;;;;;;1902574;67;20426;-75
2021/06/23 00:30:21;;;;;;;5.88;3.20;;;;;;;;;;1902437;67;20148;-76
2021/06/23 00:32:48;;;;;;;4.32;2.60;;;;;;;;;;1904457;67;20091;-77
2021/06/23 00:35:14;;;;;;;4.85;3.13;;;;;;;;;;1903571;67;20521;-76
2021/06/23 00:37:40;;;;;;;5.93;3.63;;;;;;;;;;1903774;67;20108;-76
2021/06/23 00:40:07;;;;;;;7.45;3.72;;;;;;;;;;1902325;67;20088;-76
2021/06/23 00:42:33;;;;;;;3.80;3.35;;;;;;;;;;1905277;67;20681;-76
2021/06/23 00:45:02;;;;;;;5.53;3.35;;;;;;;;;;1906583;67;20098;-76
2021/06/23 00:47:27;;;;;;;4.47;2.88;;;;;;;;;;1906203;67;20092;-78
2021/06/23 00:49:53;;;;;;;3.35;2.47;;;;;;;;;;1900467;67;20084;-76
2021/06/23 00:52:19;;;;;;;3.72;2.25;;;;;;;;;;1906374;75;20084;-75
2021/06/23 00:54:51;;;;;;;4.60;2.35;;;;;;;;;;1905399;67;20095;-77
2021/06/23 00:57:18;;;;;;;5.07;2.07;;;;;;;;;;1906021;75;20749;-77
2021/06/23 00:59:45;;;;;;;3.03;2.00;;;;;;;;;;1903767;67;20326;-76
2021/06/23 01:02:12;;;;;;;5.38;2.10;;;;;;;;;;1910176;56;20510;-76
2021/06/23 01:04:38;;;;;;;2.67;2.05;;;;;;;;;;1903459;67;20547;-76
2021/06/23 01:07:04;;;;;;;3.30;2.13;;;;;;;;;;1903384;67;20095;-77
2021/06/23 01:09:29;;;;;;;2.13;1.90;;;;;;;;;;1905681;67;20087;-76
2021/06/23 01:12:14;;;;;;;4.05;2.30;;;;;;;;;;1906111;67;20099;-75
2021/06/23 01:14:42;;;;;;;2.13;1.65;;;;;;;;;;1904795;67;20090;-76
2021/06/23 01:17:09;;;;;;;2.50;1.50;;;;;;;;;;1907011;75;20084;-77
2021/06/23 01:19:40;;;;;;;3.42;2.25;;;;;;;;;;1906406;67;20091;-75
2021/06/23 01:22:06;;;;;;;4.63;2.10;;;;;;;;;;1906418;75;20150;-76
2021/06/23 01:24:31;;;;;;;2.47;2.05;;;;;;;;;;1906663;67;20080;-77
2021/06/23 01:26:57;;;;;;;3.42;2.15;;;;;;;;;;1906149;67;20464;-74
2021/06/23 01:29:23;;;;;;;2.42;2.13;;;;;;;;;;1906296;67;20184;-76
2021/06/23 01:31:48;;;;;;;2.88;2.38;;;;;;;;;;1904673;67;20666;-76
2021/06/23 01:34:15;;;;;;;3.72;2.38;;;;;;;;;;1903275;67;20202;-76
2021/06/23 01:36:40;;;;;;;3.13;2.03;;;;;;;;;;1906501;75;20096;-76
2021/06/23 01:39:06;;;;;;;2.22;2.00;;;;;;;;;;1902623;67;20103;-76
2021/06/23 01:41:31;;;;;;;3.60;2.50;;;;;;;;;;1904868;67;20137;-76
2021/06/23 01:43:57;;;;;;;3.38;2.25;;;;;;;;;;1903287;67;20107;-76
2021/06/23 01:46:22;;;;;;;2.75;2.15;;;;;;;;;;1903402;67;20091;-76
2021/06/23 01:48:48;;;;;;;6.93;2.10;;;;;;;;;;1906164;67;20624;-75
2021/06/23 01:51:13;;;;;;;4.43;1.90;;;;;;;;;;1906046;67;20150;-78
2021/06/23 01:53:39;;;;;;;2.65;1.90;;;;;;;;;;1906440;67;20088;-76
2021/06/23 01:56:06;;;;;;;2.00;1.80;;;;;;;;;;1905835;67;20100;-76
2021/06/23 01:58:37;;;;;;;2.75;2.28;;;;;;;;;;1904241;67;20076;-76
2021/06/23 02:01:22;;;;;;;1.98;1.77;;;;;;;;;;1906619;67;20604;-76
2021/06/23 02:03:50;;;;;;;4.03;2.00;;;;;;;;;;1905746;67;20088;-77
2021/06/23 02:06:47;;;;;;;6.05;1.88;;;;;;;;;;1906655;67;20092;-77
2021/06/23 02:09:39;;;;;;;2.03;1.73;;;;;;;;;;1905696;67;20103;-76
2021/06/23 02:12:22;;;;;;;2.55;1.80;;;;;;;;;;1902401;67;20091;-76
2021/06/23 02:14:50;;;;;;;3.72;2.13;;;;;;;;;;1903372;67;20099;-76
2021/06/23 02:17:17;;;;;;;2.50;1.90;;;;;;;;;;1907288;67;20088;-76
2021/06/23 02:19:45;;;;;;;3.60;1.73;;;;;;;;;;1906006;67;20199;-75
2021/06/23 02:22:17;;;;;;;2.70;1.90;;;;;;;;;;1906809;67;20554;-77
2021/06/23 02:24:43;;;;;;;3.85;1.50;;;;;;;;;;1906221;67;20088;-75
2021/06/23 02:27:09;;;;;;;2.15;1.70;;;;;;;;;;1903857;67;20134;-76
2021/06/23 02:29:36;;;;;;;2.08;1.33;;;;;;;;;;1906948;75;20110;-77
2021/06/23 02:32:05;;;;;;;3.55;1.50;;;;;;;;;;1906872;67;20091;-76
2021/06/23 02:34:31;;;;;;;3.42;1.98;;;;;;;;;;1906583;67;20092;-76
2021/06/23 02:36:58;;;;;;;1.50;1.20;;;;;;;;;;1906609;67;20084;-78
2021/06/23 02:39:24;;;;;;;1.90;1.40;;;;;;;;;;1899704;67;20802;-76
2021/06/23 02:41:49;;;;;;;5.35;1.75;;;;;;;;;;1901453;67;20146;-77
2021/06/23 02:44:15;;;;;;;4.00;1.45;;;;;;;;;;1896014;67;20542;-77
2021/06/23 02:46:42;;;;;;;2.10;1.52;;;;;;;;;;1897057;67;20519;-77
2021/06/23 02:49:07;;;;;;;1.50;1.33;;;;;;;;;;1894013;67;20081;-77
2021/06/23 02:51:40;;;;;;;1.83;1.60;;;;;;;;;;1897729;67;20085;-77
2021/06/23 02:54:07;;;;;;;2.45;1.80;;;;;;;;;;1894573;67;20101;-78
2021/06/23 02:56:34;;;;;;;2.40;1.30;;;;;;;;;;1895116;75;20500;-76
2021/06/23 02:59:01;;;;;;;1.42;1.27;;;;;;;;;;1892821;68;20094;-77
2021/06/23 03:01:27;;;;;;;2.25;1.67;;;;;;;;;;1896978;67;20288;-76
2021/06/23 03:03:52;;;;;;;2.60;1.52;;;;;;;;;;1896646;67;20258;-77
2021/06/23 03:06:18;;;;;;;2.05;1.65;;;;;;;;;;1897789;67;20300;-78
2021/06/23 03:08:43;;;;;;;2.40;1.90;;;;;;;;;;1894801;67;20164;-77
2021/06/23 03:11:09;;;;;;;1.58;1.48;;;;;;;;;;1892409;68;20444;-76
2021/06/23 03:13:35;;;;;;;1.73;1.63;;;;;;;;;;1895334;67;20127;-77
2021/06/23 03:16:00;;;;;;;1.77;1.33;;;;;;;;;;1894794;67;20524;-78
2021/06/23 03:18:29;;;;;;;2.35;1.48;;;;;;;;;;1897258;68;20101;-78
2021/06/23 03:20:55;;;;;;;1.60;1.40;;;;;;;;;;1897320;67;20690;-76
2021/06/23 03:23:21;;;;;;;1.95;1.45;;;;;;;;;;1896944;67;20101;-77
2021/06/23 03:25:46;;;;;;;1.75;1.30;;;;;;;;;;1897424;75;20582;-77
2021/06/23 03:28:12;;;;;;;2.72;1.30;;;;;;;;;;1897063;67;20740;-77
2021/06/23 03:30:38;;;;;;;1.90;1.40;;;;;;;;;;1897817;67;20078;-76
2021/06/23 03:33:04;;;;;;;1.30;1.20;;;;;;;;;;1897693;67;20098;-76
2021/06/23 03:35:30;;;;;;;1.40;1.30;;;;;;;;;;1894753;67;20105;-77
2021/06/23 03:37:56;;;;;;;1.63;1.40;;;;;;;;;;1897354;75;20085;-77
2021/06/23 03:40:22;;;;;;;2.78;1.05;;;;;;;;;;1901696;67;20087;-76
2021/06/23 03:42:49;;;;;;;3.53;1.30;;;;;;;;;;1906777;67;20108;-77
2021/06/23 03:45:15;;;;;;;2.95;1.20;;;;;;;;;;1903893;67;20084;-78
2021/06/23 03:47:41;;;;;;;1.48;1.23;;;;;;;;;;1906837;67;20386;-77
2021/06/23 03:50:08;;;;;;;1.27;1.17;;;;;;;;;;1907076;67;20080;-77
2021/06/23 03:52:33;;;;;;;1.25;1.10;;;;;;;;;;1904410;75;20080;-76
2021/06/23 03:55:00;;;;;;;1.00;0.88;;;;;;;;;;1906575;67;20398;-77
2021/06/23 03:57:26;;;;;;;1.45;1.02;;;;;;;;;;1906725;67;20092;-77
2021/06/23 03:59:52;;;;;;;1.25;1.15;;;;;;;;;;1903339;67;20099;-77
2021/06/23 04:02:18;;;;;;;2.03;1.00;;;;;;;;;;1902976;67;20868;-76
2021/06/23 04:04:45;;;;;;;1.02;1.02;;;;;;;;;;1906237;67;20091;-77
2021/06/23 04:07:11;;;;;;;1.48;1.30;;;;;;;;;;1903473;67;20081;-76
2021/06/23 04:09:37;;;;;;;1.80;0.90;;;;;;;;;;1906729;67;20107;-78
2021/06/23 04:12:03;;;;;;;1.15;0.90;;;;;;;;;;1906280;67;20080;-76
2021/06/23 04:14:28;;;;;;;1.95;1.08;;;;;;;;;;1904448;67;20168;-75
2021/06/23 04:16:54;;;;;;;1.75;0.88;;;;;;;;;;1903390;67;20555;-77
2021/06/23 04:19:20;;;;;;;1.25;1.00;;;;;;;;;;1906625;67;20157;-77
2021/06/23 04:21:46;;;;;;;2.05;1.00;;;;;;;;;;1906933;67;20096;-78
2021/06/23 04:24:11;;;;;;;1.77;0.80;;;;;;;;;;1901720;67;20090;-78
2021/06/23 04:26:38;;;;;;;0.70;0.70;;;;;;;;;;1906817;67;20092;-77
2021/06/23 04:29:03;;;;;;;0.85;0.70;;;;;;;;;;1902171;67;20087;-78
2021/06/23 04:31:29;;;;;;;1.02;0.90;;;;;;;;;;1905808;67;20095;-77
2021/06/23 04:33:54;;;;;;;0.98;0.73;;;;;;;;;;1906622;67;20084;-78
2021/06/23 04:36:19;;;;;;;0.65;0.63;;;;;;;;;;1906887;67;20202;-78
2021/06/23 04:38:45;;;;;;;1.30;0.75;;;;;;;;;;1906324;67;20149;-77
2021/06/23 04:41:10;;;;;;;1.70;0.60;;;;;;;;;;1907090;67;20406;-76
2021/06/23 04:43:36;;;;;;;2.28;0.55;;;;;;;;;;1901468;67;20076;-80
2021/06/23 04:46:02;;;;;;;0.45;0.45;;;;;;;;;;1908144;67;20088;-77
2021/06/23 04:48:27;;;;;;;1.02;0.40;;;;;;;;;;1905563;67;20462;-77
2021/06/23 04:50:53;;;;;;;1.30;0.40;;;;;;;;;;1903183;75;20091;-77
2021/06/23 04:53:18;;;;;;;1.48;0.50;;;;;;;;;;1907029;67;20123;-78
2021/06/23 04:55:44;;;;;;;0.47;0.40;;;;;;;;;;1903724;67;20096;-77
2021/06/23 04:58:09;;;;;;;0.40;0.40;;;;;;;;;;1903619;67;20088;-77
2021/06/23 05:00:35;;;;;;;2.92;0.30;;;;;;;;;;1904637;67;20101;-78
2021/06/23 05:03:00;;;;;;;0.55;0.35;;;;;;;;;;1906338;67;20635;-78
2021/06/23 05:05:26;;;;;;;1.08;0.40;;;;;;;;;;1906900;75;20091;-77
2021/06/23 05:07:53;;;;;;;0.40;0.40;;;;;;;;;;1901543;67;20118;-76
2021/06/23 05:10:19;;;;;;;0.40;0.40;;;;;;;;;;1901740;67;20088;-78
2021/06/23 05:12:44;;;;;;;1.65;0.20;;;;;;;;;;1906795;67;20168;-76
2021/06/23 05:15:10;;;;;;;0.77;0.43;;;;;;;;;;1906280;67;20103;-78
2021/06/23 05:17:36;;;;;;;0.80;0.30;;;;;;;;;;1906657;67;20107;-78
2021/06/23 05:20:03;;;;;;;0.40;0.30;;;;;;;;;;1907683;67;20080;-77
2021/06/23 05:22:29;;;;;;;0.80;0.30;;;;;;;;;;1907198;67;20088;-78
2021/06/23 05:24:55;;;;;;;2.03;0.20;;;;;;;;;;1900507;67;20084;-77
2021/06/23 05:27:21;;;;;;;0.55;0.40;;;;;;;;;;1907220;67;20115;-77
2021/06/23 05:29:46;;;;;;;1.83;0.40;;;;;;;;;;1906504;67;20095;-77
2021/06/23 05:32:12;;;;;;;0.35;0.25;;;;;;;;;;1903728;67;20086;-76
2021/06/23 05:34:37;;;;;;;0.30;0.30;;;;;;;;;;1901510;67;20722;-77
2021/06/23 05:37:03;;;;;;;3.40;0.57;;;;;;;;;;1903717;67;20410;-77
2021/06/23 05:39:29;;;;;;;0.20;0.20;;;;;;;;;;1903240;67;20088;-78
2021/06/23 05:41:54;;;;;;;1.45;0.22;;;;;;;;;;1906193;67;20119;-79
2021/06/23 05:44:20;;;;;;;1.27;0.20;;;;;;;;;;1906186;67;20789;-78
2021/06/23 05:46:45;;;;;;;0.65;0.35;;;;;;;;;;1904245;67;20095;-79
2021/06/23 05:49:11;;;;;;;1.00;0.30;;;;;;;;;;1907184;67;20502;-78
2021/06/23 05:51:36;;;;;;;0.40;0.30;;;;;;;;;;1906822;67;20084;-77
2021/06/23 05:54:02;;;;;;;1.23;0.20;;;;;;;;;;1902362;67;20131;-77
2021/06/23 05:56:28;;;;;;;0.55;0.30;;;;;;;;;;1907021;67;20100;-79
2021/06/23 05:58:55;;;;;;;1.27;0.20;;;;;;;;;;1906004;67;20088;-79
2021/06/23 06:01:20;;;;;;;0.20;0.20;;;;;;;;;;1902936;67;20534;-79
2021/06/23 06:03:46;;;;;;;0.22;0.20;;;;;;;;;;1907450;67;20088;-78
2021/06/23 06:06:11;;;;;;;1.80;0.30;;;;;;;;;;1906891;67;20091;-79
2021/06/23 06:08:36;;;;;;;0.68;0.30;;;;;;;;;;1907219;67;20111;-79
2021/06/23 06:11:02;;;;;;;2.35;0.30;;;;;;;;;;1907512;67;20084;-78
2021/06/23 06:13:28;;;;;;;0.20;0.20;;;;;;;;;;1904362;67;20092;-79
2021/06/23 06:15:54;;;;;;;0.75;0.30;;;;;;;;;;1906361;67;20089;-80
2021/06/23 06:18:23;;;;;;;0.25;0.25;;;;;;;;;;1906074;67;20134;-79
2021/06/23 06:20:49;;;;;;;0.32;0.25;;;;;;;;;;1904371;67;20498;-80
2021/06/23 06:23:15;;;;;;;3.80;0.40;;;;;;;;;;1906900;67;20131;-79
2021/06/23 06:25:40;;;;;;;1.25;0.30;;;;;;;;;;1907077;67;20084;-79
2021/06/23 06:28:06;;;;;;;0.90;0.30;;;;;;;;;;1906914;67;20157;-79
2021/06/23 06:30:31;;;;;;;2.05;0.30;;;;;;;;;;1904590;67;20090;-79
2021/06/23 06:32:56;;;;;;;1.23;0.40;;;;;;;;;;1906381;67;20083;-80
2021/06/23 06:35:22;;;;;;;3.10;0.60;;;;;;;;;;1901913;67;20517;-80
2021/06/23 06:37:48;;;;;;;5.50;0.30;;;;;;;;;;1905841;67;20084;-79
2021/06/23 06:40:14;;;;;;;2.25;0.50;;;;;;;;;;1901403;67;23283;-77
2021/06/23 06:42:40;;;;;;;0.45;0.30;;;;;;;;;;1903193;67;20150;-74
2021/06/23 06:45:06;;;;;;;0.65;0.30;;;;;;;;;;1902100;67;20600;-75
2021/06/23 06:47:33;;;;;;;1.75;0.30;;;;;;;;;;1903385;67;20092;-74
2021/06/23 06:49:59;;;;;;;1.17;0.30;;;;;;;;;;1905945;67;20185;-74
2021/06/23 06:52:24;;;;;;;0.30;0.20;;;;;;;;;;1903196;67;20643;-74
2021/06/23 06:54:50;;;;;;;0.52;0.43;;;;;;;;;;1903202;67;20157;-74
2021/06/23 06:57:15;;;;;;;3.63;0.40;;;;;;;;;;1902356;67;20088;-74
2021/06/23 06:59:41;;;;;;;1.70;0.40;;;;;;;;;;1905700;67;20083;-74
2021/06/23 07:02:07;;;;;;;0.40;0.30;;;;;;;;;;1902489;67;20142;-75
2021/06/23 07:04:33;;;;;;;0.20;0.20;;;;;;;;;;1905052;67;20565;-72
2021/06/23 07:06:58;;;;;;;2.40;0.13;;;;;;;;;;1906508;67;20092;-72
2021/06/23 07:09:24;;;;;;;1.70;0.20;;;;;;;;;;1905670;67;20092;-73
2021/06/23 07:11:50;;;;;;;3.17;0.30;;;;;;;;;;1902057;67;20099;-74
2021/06/23 07:14:15;;;;;;;1.48;0.40;;;;;;;;;;1906976;67;20154;-80
2021/06/23 07:16:42;;;;;;;0.20;0.20;;;;;;;;;;1906791;75;20098;-80
2021/06/23 07:19:08;;;;;;;0.60;0.50;;;;;;;;;;1906773;67;20084;-79
2021/06/23 07:21:34;;;;;;;1.98;0.60;;;;;;;;;;1903263;67;20140;-80
2021/06/23 07:23:59;;;;;;;2.45;0.30;;;;;;;;;;1906944;67;20127;-77
2021/06/23 07:26:28;;;;;;;0.65;0.30;;;;;;;;;;1906882;67;20092;-78
2021/06/23 07:28:55;;;;;;;2.58;0.20;;;;;;;;;;1908152;67;20096;-79
2021/06/23 07:32:13;;;;;;;1.20;0.40;;;;;;;;;;1906650;67;20083;-76
2021/06/23 07:36:37;;;;;;;3.10;0.40;;;;;;;;;;1907969;67;20095;-77
2021/06/23 07:39:08;;;;;;;0.20;0.20;;;;;;;;;;1904299;75;20098;-78
2021/06/23 07:41:35;;;;;;;1.10;0.30;;;;;;;;;;1906241;75;20489;-76
2021/06/23 07:44:01;;;;;;;1.55;0.20;;;;;;;;;;1903739;67;20097;-76
2021/06/23 07:46:30;;;;;;;1.27;0.63;;;;;;;;;;1907134;67;20547;-75
2021/06/23 07:48:56;;;;;;;0.45;0.38;;;;;;;;;;1903367;67;20542;-76
2021/06/23 07:51:38;;;;;;;0.22;0.20;;;;;;;;;;1906698;67;20154;-76
2021/06/23 07:56:53;;;;;;;0.68;0.15;;;;;;;;;;1905907;67;20088;-77
2021/06/23 08:10:28;;;;;;;0.20;0.20;;;;;;;;;;1904007;75;20160;-75
2021/06/23 08:14:00;;;;;;;0.30;0.20;;;;;;;;;;5046842;28;20405;-63
2021/06/23 08:16:26;;;;;;;0.20;0.20;;;;;;;;;;5033057;28;20033;-63
2021/06/23 08:18:52;;;;;;;5.00;0.20;;;;;;;;;;5030705;28;20029;-64
2021/06/23 08:21:17;;;;;;;1.90;0.30;;;;;;;;;;5039994;28;20032;-64
2021/06/23 08:23:43;;;;;;;1.27;0.32;;;;;;;;;;5034387;28;20057;-63
2021/06/23 08:26:09;;;;;;;0.35;0.30;;;;;;;;;;5031979;28;20408;-63
2021/06/23 08:28:34;;;;;;;1.75;0.40;;;;;;;;;;5030723;28;20469;-64
2021/06/23 08:31:00;;;;;;;0.35;0.17;;;;;;;;;;5036609;28;20044;-59
2021/06/23 08:33:26;;;;;;;0.20;0.20;;;;;;;;;;5029121;28;20032;-64
2021/06/23 08:35:53;;;;;;;0.20;0.20;;;;;;;;;;5044285;28;20381;-65
2021/06/23 08:38:19;;;;;;;0.40;0.20;;;;;;;;;;5030992;28;20029;-64
2021/06/23 08:40:46;;;;;;;0.10;0.10;;;;;;;;;;5038034;28;20029;-65
2021/06/23 08:43:19;;;;;;;0.40;0.22;;;;;;;;;;5037651;28;20025;-62
2021/06/23 08:45:45;;;;;;;1.20;0.20;;;;;;;;;;5035281;28;20032;-64
2021/06/23 08:48:11;;;;;;;0.13;0.10;;;;;;;;;;5028069;28;20041;-64
2021/06/23 08:50:38;;;;;;;1.40;0.10;;;;;;;;;;5028295;28;20061;-65
2021/06/23 08:53:04;;;;;;;0.55;0.38;;;;;;;;;;5029096;28;20025;-65
2021/06/23 08:55:30;;;;;;;0.10;0.10;;;;;;;;;;5031093;28;20328;-62
2021/06/23 08:57:55;;;;;;;3.80;0.30;;;;;;;;;;5027502;28;20121;-64
2021/06/23 09:00:24;;;;;;;2.25;0.20;;;;;;;;;;5035981;28;20025;-65
2021/06/23 09:02:49;;;;;;;2.85;0.20;;;;;;;;;;5031843;28;20401;-64
2021/06/23 09:05:17;;;;;;;0.60;0.30;;;;;;;;;;5032025;28;20032;-64
2021/06/23 09:07:53;;;;;;;1.73;0.28;;;;;;;;;;5026065;28;20113;-66
2021/06/23 09:10:18;;;;;;;1.85;0.30;;;;;;;;;;5031868;28;20033;-67
2021/06/23 09:13:06;;;;;;;0.63;0.20;;;;;;;;;;5026917;28;20050;-64
2021/06/23 09:15:41;;;;;;;1.27;0.30;;;;;;;;;;5034477;28;20028;-64
2021/06/23 09:18:11;;;;;;;0.40;0.20;;;;;;;;;;5029759;28;20025;-65
2021/06/23 09:20:37;;;;;;;0.20;0.20;;;;;;;;;;5028798;28;20021;-65
2021/06/23 09:23:03;;;;;;;0.25;0.10;;;;;;;;;;5031833;28;20403;-64
2021/06/23 09:25:32;;;;;;;0.93;0.70;;;;;;;;;;5020070;28;20048;-64
2021/06/23 09:27:59;;;;;;;2.08;0.28;;;;;;;;;;5011284;28;20084;-64
2021/06/23 09:30:34;;;;;;;3.05;0.30;;;;;;;;;;5018981;28;20485;-64
2021/06/23 09:33:25;;;;;;;0.35;0.20;;;;;;;;;;5020995;28;20049;-64
2021/06/23 09:35:59;;;;;;;3.00;0.25;;;;;;;;;;5017388;28;20306;-65
2021/06/23 09:38:39;;;;;;;0.50;0.45;;;;;;;;;;5018133;28;20037;-65
2021/06/23 09:41:16;;;;;;;1.17;0.52;;;;;;;;;;5015825;28;20039;-66
2021/06/23 09:43:42;;;;;;;0.77;0.20;;;;;;;;;;5026742;28;20021;-66
2021/06/23 09:46:23;;;;;;;0.20;0.20;;;;;;;;;;5020963;28;20040;-63
2021/06/23 09:48:50;;;;;;;0.20;0.20;;;;;;;;;;5021064;28;20036;-64
2021/06/23 09:51:19;;;;;;;0.40;0.30;;;;;;;;;;5025502;28;20040;-65
2021/06/23 09:53:46;;;;;;;0.43;0.20;;;;;;;;;;5025369;28;20026;-61
2021/06/23 09:56:45;;;;;;;0.47;0.30;;;;;;;;;;5020494;28;20408;-62
2021/06/23 09:59:24;;;;;;;2.17;0.20;;;;;;;;;;5015505;28;20030;-62
2021/06/23 10:01:49;;;;;;;1.10;0.30;;;;;;;;;;5022674;28;20033;-62
2021/06/23 10:04:15;;;;;;;1.05;0.40;;;;;;;;;;5014936;28;20531;-63
2021/06/23 10:06:43;;;;;;;4.72;1.00;;;;;;;;;;5020142;28;20069;-63
2021/06/23 10:09:26;;;;;;;0.35;0.30;;;;;;;;;;5019442;28;20039;-63
2021/06/23 10:11:52;;;;;;;0.77;0.40;;;;;;;;;;5026708;28;20029;-63
2021/06/23 10:14:19;;;;;;;0.57;0.30;;;;;;;;;;5023178;28;20033;-63
2021/06/23 10:16:47;;;;;;;1.77;0.50;;;;;;;;;;5025450;28;20443;-63
2021/06/23 10:19:13;;;;;;;0.38;0.35;;;;;;;;;;5019975;28;20057;-63
2021/06/23 10:21:39;;;;;;;0.85;0.55;;;;;;;;;;5008519;28;20033;-63
2021/06/23 10:24:08;;;;;;;0.68;0.50;;;;;;;;;;5026097;28;20124;-63
2021/06/23 10:26:36;;;;;;;2.35;0.70;;;;;;;;;;5026326;28;20496;-62
2021/06/23 10:29:02;;;;;;;1.75;0.68;;;;;;;;;;5026624;28;20044;-62
2021/06/23 10:31:28;;;;;;;0.70;0.50;;;;;;;;;;5022564;28;20029;-61
2021/06/23 10:33:54;;;;;;;1.00;0.55;;;;;;;;;;5020011;28;20030;-61
2021/06/23 10:36:21;;;;;;;1.63;0.90;;;;;;;;;;5027390;28;20033;-62
2021/06/23 10:38:49;;;;;;;0.70;0.70;;;;;;;;;;5031684;28;20029;-63
2021/06/23 10:41:16;;;;;;;0.82;0.73;;;;;;;;;;5020735;28;20373;-63
2021/06/23 10:43:43;;;;;;;1.60;1.00;;;;;;;;;;5011034;28;20021;-63
2021/06/23 10:46:10;;;;;;;2.72;0.90;;;;;;;;;;5026844;28;20091;-64
2021/06/23 10:49:00;;;;;;;2.83;1.20;;;;;;;;;;5015695;28;20114;-64
2021/06/23 10:51:28;;;;;;;1.05;0.90;;;;;;;;;;5024846;28;20025;-63
2021/06/23 10:53:54;;;;;;;0.85;0.80;;;;;;;;;;5026143;28;20269;-63
2021/06/23 10:56:41;;;;;;;1.00;0.85;;;;;;;;;;5017133;28;20076;-64
2021/06/23 10:59:42;;;;;;;2.20;1.20;;;;;;;;;;5022460;28;20040;-65
2021/06/23 11:02:13;;;;;;;1.40;0.90;;;;;;;;;;5055033;28;20111;-64
2021/06/23 11:04:57;;;;;;;2.28;1.00;;;;;;;;;;5025998;28;20731;-65
2021/06/23 11:07:39;;;;;;;1.45;0.93;;;;;;;;;;5016274;28;20018;-65
2021/06/23 11:10:11;;;;;;;1.13;0.90;;;;;;;;;;5018871;28;20021;-64
2021/06/23 11:12:56;;;;;;;1.25;0.80;;;;;;;;;;5017468;28;20049;-64
2021/06/23 11:15:41;;;;;;;2.75;1.00;;;;;;;;;;5018690;28;20076;-65
2021/06/23 11:18:38;;;;;;;1.00;0.90;;;;;;;;;;5015340;28;20045;-63
2021/06/23 11:21:07;;;;;;;1.50;1.20;;;;;;;;;;5022828;28;20499;-63
2021/06/23 11:24:25;;;;;;;1.50;1.40;;;;;;;;;;5024172;28;20029;-63
2021/06/23 11:26:52;;;;;;;1.77;1.40;;;;;;;;;;5020768;28;20037;-62
2021/06/23 11:29:18;;;;;;;3.38;1.30;;;;;;;;;;5020671;28;20037;-63
2021/06/23 11:31:50;;;;;;;2.60;1.40;;;;;;;;;;5015633;28;20432;-63
2021/06/23 11:34:37;;;;;;;6.30;1.90;;;;;;;;;;5014649;28;20109;-63
2021/06/23 11:37:13;;;;;;;6.55;1.40;;;;;;;;;;5019315;28;20743;-63
2021/06/23 11:39:39;;;;;;;2.00;1.45;;;;;;;;;;5018269;28;20513;-64
2021/06/23 11:42:05;;;;;;;1.90;1.42;;;;;;;;;;5015933;28;20018;-63
2021/06/23 11:44:33;;;;;;;2.55;1.60;;;;;;;;;;5012616;28;20523;-62
2021/06/23 11:47:01;;;;;;;1.67;1.40;;;;;;;;;;5018395;28;20041;-63
2021/06/23 11:49:26;;;;;;;1.80;1.40;;;;;;;;;;4990213;28;20103;-64
2021/06/23 11:51:52;;;;;;;2.55;1.50;;;;;;;;;;5000216;28;20033;-63
2021/06/23 11:54:17;;;;;;;4.53;1.40;;;;;;;;;;5012199;28;20030;-64
2021/06/23 11:56:43;;;;;;;3.30;1.83;;;;;;;;;;5013338;28;20056;-63
2021/06/23 11:59:08;;;;;;;1.60;1.40;;;;;;;;;;5014385;28;20204;-63
2021/06/23 12:01:34;;;;;;;3.30;2.08;;;;;;;;;;4997745;28;20497;-65
2021/06/23 12:04:01;;;;;;;3.65;1.58;;;;;;;;;;5009433;28;20396;-64
2021/06/23 12:06:27;;;;;;;1.83;1.50;;;;;;;;;;5018363;28;20075;-63
2021/06/23 12:08:52;;;;;;;2.30;1.48;;;;;;;;;;5013653;28;20435;-64
2021/06/23 12:11:18;;;;;;;3.85;1.70;;;;;;;;;;5006548;28;20120;-63
2021/06/23 12:13:44;;;;;;;3.50;1.50;;;;;;;;;;5003792;28;20553;-64
2021/06/23 12:16:10;;;;;;;3.45;1.63;;;;;;;;;;5010075;28;20033;-63
2021/06/23 12:18:36;;;;;;;4.70;1.73;;;;;;;;;;5007882;28;20117;-64
2021/06/23 12:21:01;;;;;;;3.83;1.70;;;;;;;;;;5006102;28;20099;-64
2021/06/23 12:23:27;;;;;;;4.13;2.00;;;;;;;;;;5002809;28;20030;-63
2021/06/23 12:25:52;;;;;;;2.70;1.92;;;;;;;;;;5023522;28;20071;-64
2021/06/23 12:28:18;;;;;;;2.85;1.60;;;;;;;;;;5010903;28;20484;-63
2021/06/23 12:30:45;;;;;;;4.35;2.38;;;;;;;;;;5002619;28;20029;-64
2021/06/23 12:33:12;;;;;;;3.30;2.22;;;;;;;;;;5002932;28;20029;-65
2021/06/23 12:35:40;;;;;;;4.60;2.03;;;;;;;;;;5015328;28;20029;-64
2021/06/23 12:38:07;;;;;;;3.08;2.17;;;;;;;;;;5015985;28;20128;-65
2021/06/23 12:40:33;;;;;;;4.20;2.10;;;;;;;;;;5012154;28;20048;-66
2021/06/23 12:42:59;;;;;;;5.95;1.80;;;;;;;;;;5010301;28;20029;-65
2021/06/23 12:45:25;;;;;;;3.60;1.80;;;;;;;;;;5013713;28;20227;-66
2021/06/23 12:47:50;;;;;;;4.40;1.98;;;;;;;;;;5012818;28;20041;-65
2021/06/23 12:50:18;;;;;;;2.63;1.98;;;;;;;;;;5018716;28;20514;-65
2021/06/23 12:52:48;;;;;;;2.80;1.92;;;;;;;;;;4994649;28;20033;-61
2021/06/23 12:55:15;;;;;;;3.50;1.90;;;;;;;;;;5015092;28;20481;-62
2021/06/23 12:57:40;;;;;;;2.97;2.10;;;;;;;;;;5013940;28;20039;-62
2021/06/23 13:00:08;;;;;;;5.95;1.77;;;;;;;;;;5019334;28;20067;-62
2021/06/23 13:02:35;;;;;;;3.15;1.95;;;;;;;;;;4998602;28;20025;-62
2021/06/23 13:05:03;;;;;;;2.40;1.40;;;;;;;;;;5018149;28;20079;-63
2021/06/23 13:07:29;;;;;;;3.13;1.80;;;;;;;;;;5014962;28;20184;-63
2021/06/23 13:09:54;;;;;;;5.47;1.77;;;;;;;;;;5016080;28;20583;-62
2021/06/23 13:12:20;;;;;;;5.38;2.05;;;;;;;;;;4997874;28;20528;-63
2021/06/23 13:14:45;;;;;;;2.95;1.90;;;;;;;;;;5015336;28;20030;-63
2021/06/23 13:17:11;;;;;;;3.03;1.73;;;;;;;;;;5012476;28;20630;-62
2021/06/23 13:19:36;;;;;;;3.13;2.00;;;;;;;;;;5013147;28;20034;-63
2021/06/23 13:22:02;;;;;;;4.68;1.92;;;;;;;;;;4996408;28;20057;-63
2021/06/23 13:24:28;;;;;;;2.78;1.80;;;;;;;;;;5014468;28;20044;-65
2021/06/23 13:26:54;;;;;;;5.50;1.60;;;;;;;;;;5015737;28;20061;-66
2021/06/23 13:29:20;;;;;;;2.30;1.98;;;;;;;;;;5020865;28;20052;-65
2021/06/23 13:31:46;;;;;;;2.50;1.60;;;;;;;;;;5005629;28;20086;-64
2021/06/23 13:34:12;;;;;;;2.83;1.58;;;;;;;;;;5015970;28;20033;-64
2021/06/23 13:36:38;;;;;;;2.63;2.08;;;;;;;;;;5020415;28;20038;-64
2021/06/23 13:39:04;;;;;;;1.60;1.50;;;;;;;;;;5018346;28;20062;-63
2021/06/23 13:41:30;;;;;;;5.63;2.13;;;;;;;;;;5008758;28;20032;-63
2021/06/23 13:43:55;;;;;;;5.88;1.73;;;;;;;;;;5019386;28;22238;-62
2021/06/23 13:46:21;;;;;;;4.70;2.20;;;;;;;;;;5018606;28;20037;-63
2021/06/23 13:48:46;;;;;;;3.10;1.92;;;;;;;;;;5018449;28;20150;-64
2021/06/23 13:51:12;;;;;;;6.40;2.35;;;;;;;;;;5012976;28;20057;-63
2021/06/23 13:53:37;;;;;;;4.90;2.50;;;;;;;;;;5006067;28;20084;-61
2021/06/23 13:56:03;;;;;;;5.95;3.72;;;;;;;;;;5018384;28;20030;-61
2021/06/23 13:58:29;;;;;;;2.95;2.28;;;;;;;;;;5014790;28;20373;-61
2021/06/23 14:00:54;;;;;;;4.60;2.60;;;;;;;;;;5008540;28;20230;-61
2021/06/23 14:03:20;;;;;;;4.80;2.53;;;;;;;;;;5002103;28;20021;-61
2021/06/23 14:05:45;;;;;;;6.60;4.38;;;;;;;;;;5021865;28;20448;-61
2021/06/23 14:08:11;;;;;;;2.67;2.28;;;;;;;;;;5021670;28;20455;-60
2021/06/23 14:10:39;;;;;;;2.97;2.65;;;;;;;;;;5014553;28;20029;-61
2021/06/23 14:13:04;;;;;;;6.60;2.15;;;;;;;;;;5005429;28;20049;-61
2021/06/23 14:15:30;;;;;;;3.22;1.75;;;;;;;;;;5018575;28;20029;-61
2021/06/23 14:17:57;;;;;;;3.13;2.13;;;;;;;;;;5016240;28;20029;-61
2021/06/23 14:20:24;;;;;;;3.28;2.38;;;;;;;;;;5013996;28;20036;-61
2021/06/23 14:22:50;;;;;;;5.95;3.00;;;;;;;;;;4998320;28;20029;-64
2021/06/23 14:25:16;;;;;;;5.95;3.30;;;;;;;;;;5016650;28;20028;-64
2021/06/23 14:27:44;;;;;;;4.95;3.20;;;;;;;;;;5022504;28;20392;-64
2021/06/23 14:30:13;;;;;;;9.00;3.78;;;;;;;;;;5021494;28;20029;-64
2021/06/23 14:32:39;;;;;;;5.25;3.53;;;;;;;;;;4998979;28;20025;-64
2021/06/23 14:35:05;;;;;;;8.80;3.92;;;;;;;;;;5023701;28;20033;-63
2021/06/23 14:37:31;;;;;;;4.97;4.32;;;;;;;;;;5023342;28;20511;-63
2021/06/23 14:39:56;;;;;;;6.13;4.50;;;;;;;;;;5027477;28;20043;-63
2021/06/23 14:42:22;;;;;;;8.05;4.75;;;;;;;;;;5002787;28;20029;-64
2021/06/23 14:44:48;;;;;;;7.88;4.50;;;;;;;;;;5013355;28;20038;-64
2021/06/23 14:47:14;;;;;;;5.85;5.03;;;;;;;;;;5020308;28;20108;-65
2021/06/23 14:49:39;;;;;;;6.20;4.18;;;;;;;;;;5019025;28;20405;-65
2021/06/23 14:52:05;;;;;;;6.68;5.30;;;;;;;;;;5003412;28;20045;-65
2021/06/23 14:54:32;;;;;;;6.43;5.40;;;;;;;;;;5017818;28;20034;-65
2021/06/23 14:56:58;;;;;;;7.88;4.97;;;;;;;;;;5017162;28;20105;-65
2021/06/23 14:59:23;;;;;;;7.38;5.07;;;;;;;;;;5011124;28;20117;-65
2021/06/23 15:01:49;;;;;;;6.53;5.20;;;;;;;;;;5005332;28;20037;-64
2021/06/23 15:04:18;;;;;;;9.40;5.50;;;;;;;;;;5011911;28;20025;-65